Time;durP1;ratioP1;P1;durP2;ratioP2;P2;SDS_P1;SDS_P2;PMS_P1;PMS_P2;Temp;Humidity;BMP_temperature;BMP_pressure;BME280_temperature;BME280_humidity;BME280_pressure;Samples;Min_cycle;Max_cycle;Signal;HPM_P1;HPM_P2
2021/08/01 00:01:29;;;;;;;293.83;173.00;;;;;;;;;;4139945;34;20084;-84
2021/08/01 00:03:58;;;;;;;290.15;172.73;;;;;;;;;;4143876;34;20151;-85
2021/08/01 00:06:27;;;;;;;261.90;156.93;;;;;;;;;;4148341;34;20139;-85
2021/08/01 00:08:55;;;;;;;267.52;160.88;;;;;;;;;;4142672;34;20124;-85
2021/08/01 00:11:24;;;;;;;222.45;154.70;;;;;;;;;;4140797;34;20071;-85
2021/08/01 00:13:53;;;;;;;300.17;197.20;;;;;;;;;;4139011;34;20557;-84
2021/08/01 00:16:23;;;;;;;198.23;149.90;;;;;;;;;;4145213;34;20079;-85
2021/08/01 00:18:52;;;;;;;199.30;154.70;;;;;;;;;;4143332;34;20045;-84
2021/08/01 00:21:20;;;;;;;204.87;148.43;;;;;;;;;;4144399;34;20426;-85
2021/08/01 00:23:49;;;;;;;249.75;157.73;;;;;;;;;;4144131;34;20465;-85
2021/08/01 00:26:18;;;;;;;268.73;155.50;;;;;;;;;;4140246;34;20155;-85
2021/08/01 00:28:47;;;;;;;263.70;157.65;;;;;;;;;;4145043;34;20069;-85
2021/08/01 00:31:15;;;;;;;294.80;167.73;;;;;;;;;;4143309;34;20525;-85
2021/08/01 00:33:44;;;;;;;296.73;163.95;;;;;;;;;;4146439;34;20083;-84
2021/08/01 00:36:13;;;;;;;273.10;149.23;;;;;;;;;;4140197;34;20122;-85
2021/08/01 00:38:41;;;;;;;279.40;171.37;;;;;;;;;;4142491;34;20160;-85
2021/08/01 00:41:12;;;;;;;266.17;166.15;;;;;;;;;;4141858;34;20076;-85
2021/08/01 00:43:41;;;;;;;276.12;164.62;;;;;;;;;;4129058;34;20510;-85
2021/08/01 00:46:09;;;;;;;272.48;165.43;;;;;;;;;;4147271;34;20362;-85
2021/08/01 00:48:39;;;;;;;207.52;145.52;;;;;;;;;;4145330;34;20082;-84
2021/08/01 00:51:08;;;;;;;215.43;148.10;;;;;;;;;;4145057;34;20163;-84
2021/08/01 00:53:36;;;;;;;194.02;147.62;;;;;;;;;;4142433;34;20083;-85
2021/08/01 00:56:05;;;;;;;191.68;149.12;;;;;;;;;;4140185;34;20122;-84
2021/08/01 00:58:33;;;;;;;202.55;150.55;;;;;;;;;;4139792;34;20119;-85
2021/08/01 01:01:07;;;;;;;273.75;160.05;;;;;;;;;;4140129;34;20088;-85
2021/08/01 01:03:47;;;;;;;286.75;172.77;;;;;;;;;;4143970;34;20365;-84
2021/08/01 01:06:22;;;;;;;289.95;173.82;;;;;;;;;;4140461;34;20445;-85
2021/08/01 01:08:55;;;;;;;273.87;170.05;;;;;;;;;;4140084;34;20077;-85
2021/08/01 01:11:28;;;;;;;286.15;172.07;;;;;;;;;;4138626;34;20111;-84
2021/08/01 01:13:57;;;;;;;278.70;171.07;;;;;;;;;;4142384;34;20053;-84
2021/08/01 01:16:26;;;;;;;282.05;175.85;;;;;;;;;;4140760;34;20111;-84
2021/08/01 01:18:57;;;;;;;280.25;170.20;;;;;;;;;;4139527;34;20048;-84
2021/08/01 01:21:36;;;;;;;279.95;172.15;;;;;;;;;;4145621;34;20480;-84
2021/08/01 01:24:09;;;;;;;293.50;179.75;;;;;;;;;;4144592;34;20045;-84
2021/08/01 01:26:40;;;;;;;217.98;157.93;;;;;;;;;;4130220;34;20060;-85
2021/08/01 01:29:27;;;;;;;226.07;163.93;;;;;;;;;;4139738;34;20157;-85
2021/08/01 01:31:56;;;;;;;201.05;152.45;;;;;;;;;;4131612;34;20074;-84
2021/08/01 01:34:29;;;;;;;195.95;150.57;;;;;;;;;;4141678;34;20072;-84
2021/08/01 01:37:01;;;;;;;199.43;152.70;;;;;;;;;;4141868;34;20100;-85
2021/08/01 01:39:34;;;;;;;280.67;161.62;;;;;;;;;;4142971;34;20621;-84
2021/08/01 01:42:04;;;;;;;294.27;177.82;;;;;;;;;;4143566;34;20096;-85
2021/08/01 01:44:33;;;;;;;283.35;171.57;;;;;;;;;;4145805;34;20052;-85
2021/08/01 01:47:02;;;;;;;275.75;165.57;;;;;;;;;;4146308;34;20096;-85
2021/08/01 01:49:32;;;;;;;278.55;166.30;;;;;;;;;;4147877;34;20109;-85
2021/08/01 01:52:01;;;;;;;262.88;163.25;;;;;;;;;;4140396;34;20563;-85
2021/08/01 01:54:29;;;;;;;271.40;165.12;;;;;;;;;;4143907;34;20260;-85
2021/08/01 01:56:59;;;;;;;269.20;170.65;;;;;;;;;;4137526;34;20092;-86
2021/08/01 01:59:29;;;;;;;273.92;173.05;;;;;;;;;;4136748;34;20452;-84
2021/08/01 02:01:58;;;;;;;264.45;165.82;;;;;;;;;;4140717;34;20146;-84
2021/08/01 02:04:28;;;;;;;207.98;146.95;;;;;;;;;;4138684;34;20147;-85
2021/08/01 02:07:07;;;;;;;214.57;150.15;;;;;;;;;;4146544;34;20088;-84
2021/08/01 02:09:43;;;;;;;216.10;150.10;;;;;;;;;;4141574;34;20149;-85
2021/08/01 02:12:27;;;;;;;194.73;150.62;;;;;;;;;;4147094;34;20411;-84
2021/08/01 02:15:00;;;;;;;205.32;152.85;;;;;;;;;;4143391;34;20119;-85
2021/08/01 02:17:48;;;;;;;268.17;158.30;;;;;;;;;;4139579;34;20069;-85
2021/08/01 02:20:18;;;;;;;263.50;155.73;;;;;;;;;;4146280;34;20126;-85
2021/08/01 02:22:50;;;;;;;286.15;169.32;;;;;;;;;;4145124;34;20063;-85
2021/08/01 02:25:20;;;;;;;275.87;168.68;;;;;;;;;;4143444;34;20081;-85
2021/08/01 02:27:49;;;;;;;270.30;169.77;;;;;;;;;;4144786;34;20048;-85
2021/08/01 02:30:19;;;;;;;272.67;161.95;;;;;;;;;;4142213;34;20075;-85
2021/08/01 02:32:48;;;;;;;267.30;164.80;;;;;;;;;;4145523;34;20068;-85
2021/08/01 02:35:19;;;;;;;282.62;170.85;;;;;;;;;;4143390;34;20048;-84
2021/08/01 02:37:48;;;;;;;268.60;171.00;;;;;;;;;;4143266;34;20079;-85
2021/08/01 02:40:18;;;;;;;273.35;167.27;;;;;;;;;;4145066;34;20105;-85
2021/08/01 02:42:49;;;;;;;231.45;151.63;;;;;;;;;;4142321;34;20052;-85
2021/08/01 02:45:18;;;;;;;211.82;148.00;;;;;;;;;;4141654;34;20053;-84
2021/08/01 02:47:49;;;;;;;214.70;161.82;;;;;;;;;;4140274;34;20100;-85
2021/08/01 02:50:20;;;;;;;191.52;151.00;;;;;;;;;;4142725;34;20041;-85
2021/08/01 02:52:55;;;;;;;192.60;150.07;;;;;;;;;;4140160;34;20088;-85
2021/08/01 02:55:25;;;;;;;290.42;183.70;;;;;;;;;;4149114;34;20088;-85
2021/08/01 02:57:54;;;;;;;293.85;179.90;;;;;;;;;;4149733;34;20554;-85
2021/08/01 03:00:23;;;;;;;292.35;183.23;;;;;;;;;;4143765;34;20076;-85
2021/08/01 03:02:53;;;;;;;299.30;182.10;;;;;;;;;;4134448;34;20088;-85
2021/08/01 03:05:22;;;;;;;274.30;173.07;;;;;;;;;;4134879;34;20103;-84
2021/08/01 03:07:51;;;;;;;267.33;172.60;;;;;;;;;;4134237;34;20068;-85
2021/08/01 08:48:09;;;;;;;356.40;258.73;;;;;;;;;;4891061;28;20418;31
2021/08/01 08:50:39;;;;;;;351.30;257.75;;;;;;;;;;4144753;34;20130;-85
2021/08/01 08:53:07;;;;;;;356.17;261.73;;;;;;;;;;4137079;34;20372;-85
2021/08/01 08:55:36;;;;;;;380.75;270.55;;;;;;;;;;4135607;34;20454;-84
2021/08/01 08:58:05;;;;;;;363.55;263.52;;;;;;;;;;4140082;34;20083;-85
2021/08/01 09:00:34;;;;;;;373.38;291.52;;;;;;;;;;4137898;34;20511;-84
2021/08/01 09:03:03;;;;;;;341.60;262.10;;;;;;;;;;4138627;34;20134;-85
2021/08/01 09:05:32;;;;;;;285.33;254.65;;;;;;;;;;4136830;34;20060;-85
2021/08/01 09:08:02;;;;;;;280.95;251.00;;;;;;;;;;4142733;34;20052;-85
2021/08/01 09:10:33;;;;;;;271.33;242.52;;;;;;;;;;4141707;34;20088;-83
2021/08/01 09:13:02;;;;;;;285.17;257.83;;;;;;;;;;4141097;34;20064;-85
2021/08/01 09:15:30;;;;;;;280.08;252.00;;;;;;;;;;4140347;34;20056;-84
2021/08/01 09:18:00;;;;;;;280.92;251.85;;;;;;;;;;4139553;34;20155;-85
2021/08/01 09:20:29;;;;;;;340.50;263.65;;;;;;;;;;4148361;34;20069;-84
2021/08/01 09:23:01;;;;;;;337.02;265.73;;;;;;;;;;4141708;34;20137;-85
2021/08/01 09:25:50;;;;;;;311.40;263.33;;;;;;;;;;4141230;34;20599;-85
2021/08/01 09:28:26;;;;;;;327.10;268.48;;;;;;;;;;4134376;34;20162;-85
2021/08/01 09:30:59;;;;;;;275.25;245.27;;;;;;;;;;4145734;34;20492;-85
2021/08/01 09:33:35;;;;;;;251.95;225.15;;;;;;;;;;4145270;34;20518;-85
2021/08/01 09:36:14;;;;;;;233.57;209.98;;;;;;;;;;4136290;34;20493;-84
2021/08/01 09:38:48;;;;;;;223.32;201.75;;;;;;;;;;4140535;34;20656;-85
2021/08/01 09:41:20;;;;;;;153.05;139.32;;;;;;;;;;4139721;34;20456;-85
2021/08/01 09:43:54;;;;;;;144.32;132.60;;;;;;;;;;4147030;34;20437;-85
2021/08/01 09:46:43;;;;;;;97.53;88.68;;;;;;;;;;4143132;34;20487;-85
2021/08/01 09:49:15;;;;;;;65.82;58.80;;;;;;;;;;4141647;34;20271;-85
2021/08/01 09:51:45;;;;;;;77.80;69.93;;;;;;;;;;4141467;34;20134;-85
2021/08/01 09:54:14;;;;;;;60.97;55.40;;;;;;;;;;4148464;34;20437;-85
2021/08/01 09:56:53;;;;;;;103.43;94.50;;;;;;;;;;4144918;34;20083;-85
2021/08/01 09:59:24;;;;;;;39.25;34.90;;;;;;;;;;4148828;34;20052;-85
2021/08/01 10:01:57;;;;;;;20.95;13.45;;;;;;;;;;4144260;34;20155;-85
2021/08/01 10:04:26;;;;;;;13.50;4.60;;;;;;;;;;4154609;34;20052;-85
2021/08/01 10:07:01;;;;;;;14.73;5.47;;;;;;;;;;4156223;34;20546;-84
2021/08/01 10:09:30;;;;;;;12.70;5.43;;;;;;;;;;4150497;34;20086;-84
2021/08/01 10:11:59;;;;;;;16.25;5.60;;;;;;;;;;4144673;34;20064;-84
2021/08/01 10:14:28;;;;;;;19.33;4.68;;;;;;;;;;4137443;34;20451;-85
2021/08/01 10:16:58;;;;;;;20.20;5.35;;;;;;;;;;4146440;34;20049;-84
2021/08/01 10:19:27;;;;;;;15.48;5.03;;;;;;;;;;4156604;34;20105;-85
2021/08/01 10:21:57;;;;;;;19.75;5.30;;;;;;;;;;4152333;34;20065;-86
2021/08/01 10:24:30;;;;;;;17.65;5.00;;;;;;;;;;4152324;34;20221;-85
2021/08/01 10:27:06;;;;;;;18.05;5.07;;;;;;;;;;4151839;34;20151;-85
2021/08/01 10:29:51;;;;;;;13.88;4.15;;;;;;;;;;4156966;34;20102;-85
2021/08/01 10:32:20;;;;;;;;;;;;;;;;;;4152895;34;20088;-85
2021/08/01 10:35:07;;;;;;;16.58;4.93;;;;;;;;;;4163281;34;19955;-85
2021/08/01 10:37:45;;;;;;;15.90;4.90;;;;;;;;;;4143855;34;20051;-85
2021/08/01 10:40:18;;;;;;;13.38;5.68;;;;;;;;;;4153091;34;20109;-85
2021/08/01 10:42:55;;;;;;;11.45;4.03;;;;;;;;;;4147856;34;20118;-85
2021/08/01 10:45:24;;;;;;;17.83;5.22;;;;;;;;;;4140308;34;20072;-84
2021/08/01 10:47:53;;;;;;;17.55;5.45;;;;;;;;;;4146761;34;20067;-85
2021/08/01 10:50:26;;;;;;;17.62;5.00;;;;;;;;;;4146221;34;20091;-85
2021/08/01 10:53:14;;;;;;;18.87;4.75;;;;;;;;;;4152813;34;20072;-85
2021/08/01 10:55:42;;;;;;;11.98;4.93;;;;;;;;;;4151484;34;20514;-85
2021/08/01 10:58:12;;;;;;;13.40;4.53;;;;;;;;;;4150130;34;20102;-84
2021/08/01 11:00:56;;;;;;;20.92;5.60;;;;;;;;;;4146956;34;20159;-85
2021/08/01 11:03:25;;;;;;;15.32;4.22;;;;;;;;;;4147176;34;20037;-85
2021/08/01 11:05:53;;;;;;;14.77;5.40;;;;;;;;;;4138714;34;20080;-86
2021/08/01 11:08:22;;;;;;;13.52;4.40;;;;;;;;;;4143017;34;20049;-85
2021/08/01 11:11:10;;;;;;;14.38;5.12;;;;;;;;;;4142346;34;20125;-85
2021/08/01 11:13:42;;;;;;;19.55;5.70;;;;;;;;;;4142951;34;20087;-85
2021/08/01 11:16:12;;;;;;;16.67;5.40;;;;;;;;;;4138816;34;20182;-85
2021/08/01 11:18:44;;;;;;;12.23;4.70;;;;;;;;;;4145773;34;20106;-85
2021/08/01 11:21:14;;;;;;;11.45;4.78;;;;;;;;;;4141923;34;20513;-85
2021/08/01 11:23:48;;;;;;;14.48;4.90;;;;;;;;;;4142208;34;20459;-85
2021/08/01 11:26:18;;;;;;;10.50;4.30;;;;;;;;;;4139931;34;20053;-85
2021/08/01 11:28:48;;;;;;;15.25;4.85;;;;;;;;;;4139930;34;20382;-85
2021/08/01 11:31:23;;;;;;;15.73;5.07;;;;;;;;;;4138087;34;20096;-85
2021/08/01 11:33:53;;;;;;;15.35;4.68;;;;;;;;;;4145448;34;20083;-85
2021/08/01 11:36:26;;;;;;;12.82;3.83;;;;;;;;;;4144233;34;20075;-85
2021/08/01 11:38:54;;;;;;;11.40;4.25;;;;;;;;;;4141787;34;20372;-85
2021/08/01 11:41:26;;;;;;;11.60;4.07;;;;;;;;;;4138128;34;20106;-85
2021/08/01 11:44:04;;;;;;;16.87;4.40;;;;;;;;;;4151223;34;20107;-84
2021/08/01 11:46:54;;;;;;;14.80;4.75;;;;;;;;;;4153918;34;20044;-85
2021/08/01 11:49:27;;;;;;;11.43;4.05;;;;;;;;;;4142711;34;20084;-85
2021/08/01 11:51:58;;;;;;;13.20;4.30;;;;;;;;;;4153994;34;20053;-85
2021/08/01 11:54:32;;;;;;;13.62;3.80;;;;;;;;;;4154616;34;20457;-86
2021/08/01 11:57:04;;;;;;;15.02;4.32;;;;;;;;;;4149988;34;20091;-85
2021/08/01 11:59:34;;;;;;;14.38;4.50;;;;;;;;;;4161925;34;20081;-85
2021/08/01 12:02:07;;;;;;;16.48;4.50;;;;;;;;;;4159545;34;20075;-85
2021/08/01 12:04:36;;;;;;;14.20;4.85;;;;;;;;;;4154493;34;20411;-84
2021/08/01 12:07:05;;;;;;;16.62;4.50;;;;;;;;;;4138522;34;20389;-85
2021/08/01 12:09:38;;;;;;;11.20;3.80;;;;;;;;;;4155052;34;20056;-85
2021/08/01 12:12:08;;;;;;;20.25;4.30;;;;;;;;;;4153679;34;20436;-85
2021/08/01 12:14:37;;;;;;;11.05;3.78;;;;;;;;;;4155435;34;20124;-84
2021/08/01 12:17:07;;;;;;;9.88;4.12;;;;;;;;;;4152101;34;20071;-84
2021/08/01 12:19:40;;;;;;;14.02;4.10;;;;;;;;;;4159716;34;20048;-85
2021/08/01 12:22:12;;;;;;;16.10;4.10;;;;;;;;;;4158080;34;20101;-85
2021/08/01 12:24:40;;;;;;;13.40;4.10;;;;;;;;;;4150121;34;20095;-85
2021/08/01 12:27:12;;;;;;;18.40;4.53;;;;;;;;;;4147537;34;20551;-85
2021/08/01 12:29:41;;;;;;;8.98;3.33;;;;;;;;;;4153309;34;20666;-85
2021/08/01 12:32:20;;;;;;;12.68;3.90;;;;;;;;;;4147196;34;20057;-85
2021/08/01 12:34:50;;;;;;;16.42;4.50;;;;;;;;;;4141429;34;20048;-86
2021/08/01 12:37:18;;;;;;;10.82;3.55;;;;;;;;;;4148163;34;20096;-85
2021/08/01 12:39:47;;;;;;;12.60;4.03;;;;;;;;;;4150941;34;20116;-85
2021/08/01 12:42:17;;;;;;;10.63;4.22;;;;;;;;;;4152351;34;20068;-85
2021/08/01 12:44:50;;;;;;;11.75;3.97;;;;;;;;;;4149504;34;20120;-86
2021/08/01 12:47:19;;;;;;;23.97;4.87;;;;;;;;;;4148191;34;20052;-85
2021/08/01 12:49:48;;;;;;;13.70;3.65;;;;;;;;;;4143141;34;20205;-85
2021/08/01 12:52:21;;;;;;;7.45;3.15;;;;;;;;;;4149165;34;20089;-86
2021/08/01 12:54:50;;;;;;;15.80;4.55;;;;;;;;;;4148430;34;20240;-85
2021/08/01 12:57:19;;;;;;;11.98;4.03;;;;;;;;;;4147983;34;20475;-86
2021/08/01 13:00:29;;;;;;;14.50;4.20;;;;;;;;;;4148752;34;20327;-86
2021/08/01 13:03:05;;;;;;;15.23;4.85;;;;;;;;;;4115463;34;20127;-85
2021/08/01 13:05:35;;;;;;;15.32;4.12;;;;;;;;;;4124666;34;20045;-85
2021/08/01 13:08:06;;;;;;;9.13;3.85;;;;;;;;;;4134507;34;20427;-85
2021/08/01 13:10:48;;;;;;;10.30;4.05;;;;;;;;;;4147754;34;20470;-85
2021/08/01 13:13:17;;;;;;;11.43;4.50;;;;;;;;;;4151189;34;20114;-85
2021/08/01 13:16:04;;;;;;;19.50;4.75;;;;;;;;;;4148950;34;20079;-86
2021/08/01 13:18:36;;;;;;;11.90;4.30;;;;;;;;;;4146159;34;20044;-86
2021/08/01 13:21:21;;;;;;;34.33;6.10;;;;;;;;;;4150579;34;20057;-85
2021/08/01 13:23:53;;;;;;;12.98;4.57;;;;;;;;;;4148454;34;20132;-86
2021/08/01 13:26:26;;;;;;;11.90;4.30;;;;;;;;;;4149283;34;20088;-85
2021/08/01 13:29:05;;;;;;;20.85;4.65;;;;;;;;;;4134705;34;20044;-85
2021/08/01 13:31:34;;;;;;;13.30;4.90;;;;;;;;;;4148648;34;20087;-86
2021/08/01 13:34:04;;;;;;;13.05;4.28;;;;;;;;;;4150230;34;20113;-84
2021/08/01 13:36:52;;;;;;;12.45;4.55;;;;;;;;;;4144211;34;20618;-85
2021/08/01 13:39:25;;;;;;;15.60;5.03;;;;;;;;;;4147555;34;20186;-85
2021/08/01 13:42:05;;;;;;;10.77;5.12;;;;;;;;;;4144598;34;20032;-85
2021/08/01 13:44:35;;;;;;;11.95;4.30;;;;;;;;;;4143948;34;20079;-85
2021/08/01 13:47:17;;;;;;;12.50;4.62;;;;;;;;;;4148237;34;20056;-85
2021/08/01 13:49:47;;;;;;;16.65;4.90;;;;;;;;;;4146513;34;20688;-85
2021/08/01 13:52:16;;;;;;;19.33;5.97;;;;;;;;;;4145525;34;20076;-85
2021/08/01 13:54:45;;;;;;;13.75;4.30;;;;;;;;;;4145208;34;20073;-85
2021/08/01 13:57:15;;;;;;;16.67;4.68;;;;;;;;;;4145527;34;20076;-85
2021/08/01 13:59:44;;;;;;;19.50;5.35;;;;;;;;;;4148618;34;20108;-84
2021/08/01 14:02:13;;;;;;;14.98;5.18;;;;;;;;;;4149351;34;20124;-84
2021/08/01 14:04:42;;;;;;;13.05;5.28;;;;;;;;;;4145538;34;20122;-85
2021/08/01 14:07:10;;;;;;;11.10;4.30;;;;;;;;;;4148892;34;20041;-85
2021/08/01 14:09:39;;;;;;;13.50;5.30;;;;;;;;;;4147775;34;20423;-85
2021/08/01 14:12:08;;;;;;;11.32;4.22;;;;;;;;;;4148973;34;20376;-85
2021/08/01 14:14:37;;;;;;;13.80;5.12;;;;;;;;;;4146060;34;20114;-85
2021/08/01 14:17:07;;;;;;;11.48;5.47;;;;;;;;;;4149368;34;20412;-85
2021/08/01 14:19:36;;;;;;;12.80;4.47;;;;;;;;;;4132874;34;20119;-85
2021/08/01 14:22:04;;;;;;;10.98;3.83;;;;;;;;;;4145515;34;20082;-85
2021/08/01 14:24:33;;;;;;;11.07;4.72;;;;;;;;;;4144393;34;20087;-84
2021/08/01 14:27:03;;;;;;;15.60;5.70;;;;;;;;;;4147461;34;20452;-85
2021/08/01 14:29:38;;;;;;;14.57;5.68;;;;;;;;;;4131857;34;20052;-85
2021/08/01 14:32:12;;;;;;;11.40;5.07;;;;;;;;;;4144738;34;20078;-85
2021/08/01 14:34:45;;;;;;;12.73;4.73;;;;;;;;;;4148650;34;20108;-85
2021/08/01 14:37:14;;;;;;;11.57;4.47;;;;;;;;;;4149408;34;20111;-85
2021/08/01 14:39:44;;;;;;;14.65;4.80;;;;;;;;;;4150519;34;20455;-84
2021/08/01 14:42:17;;;;;;;14.85;5.28;;;;;;;;;;4138933;34;20081;-85
2021/08/01 14:44:46;;;;;;;12.10;5.10;;;;;;;;;;4144917;34;20075;-84
2021/08/01 14:47:31;;;;;;;19.23;5.07;;;;;;;;;;4147105;34;20056;-84
2021/08/01 14:50:07;;;;;;;16.42;5.05;;;;;;;;;;4151848;34;20444;-85
2021/08/01 14:55:23;;;;;;;11.63;4.32;;;;;;;;;;4148079;34;20449;-84
2021/08/01 14:58:10;;;;;;;12.35;4.60;;;;;;;;;;4143285;34;20151;-84
2021/08/01 15:00:43;;;;;;;13.05;4.80;;;;;;;;;;4141289;34;21533;-85
2021/08/01 15:03:14;;;;;;;12.18;4.18;;;;;;;;;;4142041;34;20122;-85
2021/08/01 15:05:58;;;;;;;20.20;4.53;;;;;;;;;;4130019;34;20115;-84
2021/08/01 15:08:35;;;;;;;14.40;4.37;;;;;;;;;;4139104;34;20853;-84
2021/08/01 15:11:10;;;;;;;23.73;4.80;;;;;;;;;;4140750;34;20555;-84
2021/08/01 15:13:41;;;;;;;24.60;6.37;;;;;;;;;;4145597;34;20144;-84
2021/08/01 15:16:11;;;;;;;15.82;4.10;;;;;;;;;;4141127;34;20074;-84
2021/08/01 15:18:45;;;;;;;14.32;5.32;;;;;;;;;;4146154;34;20037;-84
2021/08/01 15:21:16;;;;;;;12.68;4.30;;;;;;;;;;4141698;34;20242;-85
2021/08/01 15:24:09;;;;;;;8.38;3.72;;;;;;;;;;4143518;34;20740;-84
2021/08/01 15:26:38;;;;;;;15.98;4.80;;;;;;;;;;4141243;34;20480;-84
2021/08/01 15:29:07;;;;;;;14.23;4.30;;;;;;;;;;4141761;34;20091;-85
2021/08/01 15:31:36;;;;;;;14.20;4.87;;;;;;;;;;4141199;34;20049;-85
2021/08/01 15:34:05;;;;;;;19.00;4.30;;;;;;;;;;4144284;34;20065;-84
2021/08/01 15:36:34;;;;;;;18.95;5.30;;;;;;;;;;4126575;34;20141;-85
2021/08/01 15:39:03;;;;;;;14.68;3.85;;;;;;;;;;4141780;34;20091;-85
2021/08/01 15:41:35;;;;;;;13.80;4.57;;;;;;;;;;4140141;34;20131;-84
2021/08/01 15:44:04;;;;;;;8.82;4.07;;;;;;;;;;4145810;34;20394;-84
2021/08/01 15:46:37;;;;;;;16.20;4.87;;;;;;;;;;4138576;34;20084;-85
2021/08/01 15:49:09;;;;;;;11.95;4.68;;;;;;;;;;4141803;34;20075;-85
2021/08/01 15:51:41;;;;;;;11.57;3.87;;;;;;;;;;4142055;34;20325;-84
2021/08/01 15:54:11;;;;;;;9.63;4.30;;;;;;;;;;4140940;34;20099;-84
2021/08/01 15:56:44;;;;;;;9.55;4.22;;;;;;;;;;4142105;34;20195;-84
2021/08/01 15:59:16;;;;;;;19.58;5.30;;;;;;;;;;4139725;34;20460;-84
2021/08/01 16:02:07;;;;;;;12.52;4.50;;;;;;;;;;4131747;34;20083;-84
2021/08/01 16:04:52;;;;;;;10.48;3.70;;;;;;;;;;4140533;34;20080;-84
2021/08/01 16:07:22;;;;;;;9.43;3.65;;;;;;;;;;4142851;34;20118;-84
2021/08/01 16:10:03;;;;;;;15.60;4.28;;;;;;;;;;4140968;34;20095;-85
2021/08/01 16:12:38;;;;;;;16.98;4.20;;;;;;;;;;4140147;34;20041;-85
2021/08/01 16:15:09;;;;;;;12.88;4.22;;;;;;;;;;4142478;34;20079;-84
2021/08/01 16:17:44;;;;;;;12.55;4.03;;;;;;;;;;4140373;34;20894;-85
2021/08/01 16:20:13;;;;;;;16.40;4.28;;;;;;;;;;4146070;34;20060;-84
2021/08/01 16:22:43;;;;;;;11.88;3.67;;;;;;;;;;4141875;34;20132;-84
2021/08/01 16:25:13;;;;;;;15.02;4.15;;;;;;;;;;4131854;34;20115;-84
2021/08/01 16:27:42;;;;;;;11.32;4.07;;;;;;;;;;4142139;34;20151;-84
2021/08/01 16:30:11;;;;;;;11.12;4.20;;;;;;;;;;4138028;34;20429;-84
2021/08/01 16:32:44;;;;;;;15.45;4.62;;;;;;;;;;4137300;34;20510;-84
2021/08/01 16:35:16;;;;;;;18.12;4.95;;;;;;;;;;4142620;34;20441;-84
2021/08/01 16:37:44;;;;;;;12.70;5.10;;;;;;;;;;4139876;34;20068;-84
2021/08/01 16:40:13;;;;;;;9.32;4.10;;;;;;;;;;4140712;34;20230;-84
2021/08/01 16:42:42;;;;;;;15.65;4.93;;;;;;;;;;4132884;34;20139;-85
2021/08/01 16:45:10;;;;;;;14.40;4.70;;;;;;;;;;4141207;34;20088;-84
2021/08/01 16:47:47;;;;;;;9.50;4.22;;;;;;;;;;4139399;34;20698;-84
2021/08/01 16:50:29;;;;;;;9.93;4.68;;;;;;;;;;4144471;34;20045;-84
2021/08/01 16:52:58;;;;;;;13.18;4.82;;;;;;;;;;4139342;34;20489;-84
2021/08/01 16:55:36;;;;;;;15.23;5.47;;;;;;;;;;4140418;34;20125;-84
2021/08/01 16:58:15;;;;;;;14.57;5.10;;;;;;;;;;4139705;34;20052;-84
2021/08/01 17:00:52;;;;;;;11.52;4.75;;;;;;;;;;4136768;34;20172;-85
2021/08/01 17:03:25;;;;;;;12.98;5.00;;;;;;;;;;4140363;34;20076;-84
2021/08/01 17:06:10;;;;;;;17.33;5.65;;;;;;;;;;4138804;34;20147;-85
2021/08/01 17:08:55;;;;;;;19.92;5.90;;;;;;;;;;4147220;34;20203;-84
2021/08/01 17:11:31;;;;;;;15.15;4.95;;;;;;;;;;4142607;34;20070;-84
2021/08/01 17:14:00;;;;;;;16.52;5.82;;;;;;;;;;4134661;34;20380;-84
2021/08/01 17:16:31;;;;;;;12.18;4.75;;;;;;;;;;4143715;34;20131;-85
2021/08/01 17:19:01;;;;;;;13.13;6.35;;;;;;;;;;4121198;34;20203;-84
2021/08/01 17:21:30;;;;;;;17.37;6.22;;;;;;;;;;4138567;34;20384;-84
2021/08/01 17:23:59;;;;;;;16.05;6.60;;;;;;;;;;4138469;34;20079;-84
2021/08/01 17:26:28;;;;;;;12.57;5.80;;;;;;;;;;4141592;34;20084;-85
2021/08/01 17:28:58;;;;;;;25.17;7.70;;;;;;;;;;4146959;34;20060;-84
2021/08/01 17:31:29;;;;;;;11.02;5.32;;;;;;;;;;4148116;34;20404;-85
2021/08/01 17:34:13;;;;;;;20.45;5.72;;;;;;;;;;4140896;34;20500;-84
2021/08/01 17:36:44;;;;;;;15.57;6.12;;;;;;;;;;4133743;34;20493;-84
2021/08/01 17:39:17;;;;;;;24.23;13.38;;;;;;;;;;4138870;34;20122;-84
2021/08/01 17:41:47;;;;;;;17.83;9.50;;;;;;;;;;4143864;34;20048;-85
2021/08/01 17:44:19;;;;;;;26.08;10.80;;;;;;;;;;4121676;34;20041;-85
2021/08/01 17:46:48;;;;;;;20.23;11.65;;;;;;;;;;4144658;34;20044;-84
2021/08/01 17:49:22;;;;;;;26.02;23.42;;;;;;;;;;4147599;34;20056;-85
2021/08/01 17:51:51;;;;;;;27.67;24.95;;;;;;;;;;4143150;34;20144;-84
2021/08/01 17:54:21;;;;;;;27.02;24.12;;;;;;;;;;4143272;34;20947;-85
2021/08/01 17:56:49;;;;;;;15.27;11.35;;;;;;;;;;4142311;34;20134;-85
2021/08/01 17:59:18;;;;;;;19.65;13.68;;;;;;;;;;4141759;34;20151;-84
2021/08/01 18:01:49;;;;;;;21.37;16.62;;;;;;;;;;4144009;34;20142;-85
2021/08/01 18:04:18;;;;;;;16.48;10.40;;;;;;;;;;4145329;34;20541;-85
2021/08/01 18:07:05;;;;;;;12.80;7.53;;;;;;;;;;4138745;34;20067;-84
2021/08/01 18:09:37;;;;;;;17.30;12.75;;;;;;;;;;4143776;34;21207;-83
2021/08/01 18:12:09;;;;;;;19.92;16.67;;;;;;;;;;4130615;34;20056;-84
2021/08/01 18:14:39;;;;;;;24.20;22.10;;;;;;;;;;4144857;34;20073;-85
2021/08/01 18:17:07;;;;;;;25.77;23.77;;;;;;;;;;4147439;34;20075;-84
2021/08/01 18:19:36;;;;;;;25.52;21.92;;;;;;;;;;4142962;34;20150;-84
2021/08/01 18:22:07;;;;;;;24.40;22.05;;;;;;;;;;4136951;34;20921;-85
2021/08/01 18:24:35;;;;;;;31.60;28.80;;;;;;;;;;4146674;34;20151;-85
2021/08/01 18:27:04;;;;;;;25.08;22.58;;;;;;;;;;4139721;34;20613;-84
2021/08/01 18:29:34;;;;;;;27.67;25.17;;;;;;;;;;4143586;34;20084;-84
2021/08/01 18:32:02;;;;;;;59.55;55.83;;;;;;;;;;4140328;34;20083;-84
2021/08/01 18:34:31;;;;;;;123.00;115.65;;;;;;;;;;4144527;34;20064;-84
2021/08/01 18:37:00;;;;;;;87.37;81.90;;;;;;;;;;4146861;34;21567;-85
2021/08/01 18:39:29;;;;;;;65.18;61.17;;;;;;;;;;4141167;34;20088;-84
2021/08/01 18:42:06;;;;;;;102.55;96.20;;;;;;;;;;4141844;34;20117;-85
2021/08/01 18:44:36;;;;;;;123.18;116.12;;;;;;;;;;4147559;34;20063;-85
2021/08/01 18:47:05;;;;;;;205.07;194.70;;;;;;;;;;4143561;34;20461;-84
2021/08/01 18:49:35;;;;;;;211.10;198.80;;;;;;;;;;4139542;34;20185;-84
2021/08/01 18:52:05;;;;;;;184.60;171.00;;;;;;;;;;4143155;34;20100;-84
2021/08/01 18:54:40;;;;;;;138.85;127.22;;;;;;;;;;4141306;34;20454;-85
2021/08/01 18:57:09;;;;;;;108.45;99.50;;;;;;;;;;4141022;34;20048;-84
2021/08/01 18:59:40;;;;;;;179.38;158.87;;;;;;;;;;4139819;34;20056;-84
2021/08/01 19:02:10;;;;;;;162.37;145.98;;;;;;;;;;4140658;34;20056;-85
2021/08/01 19:04:40;;;;;;;187.37;159.00;;;;;;;;;;4140471;34;20568;-84
2021/08/01 19:07:09;;;;;;;158.25;135.45;;;;;;;;;;4140092;34;20071;-84
2021/08/01 19:09:39;;;;;;;232.20;150.73;;;;;;;;;;4146682;34;20065;-84
2021/08/01 19:12:08;;;;;;;269.30;177.02;;;;;;;;;;4146821;34;20099;-83
2021/08/01 19:14:36;;;;;;;318.58;206.52;;;;;;;;;;4147069;34;20060;-84
2021/08/01 19:17:09;;;;;;;358.98;220.95;;;;;;;;;;4139896;34;20460;-84
2021/08/01 19:19:40;;;;;;;357.75;221.07;;;;;;;;;;4149071;34;20788;-84
2021/08/01 19:22:14;;;;;;;237.30;210.80;;;;;;;;;;4147087;34;20116;-83
2021/08/01 19:24:52;;;;;;;237.23;191.48;;;;;;;;;;4143162;34;20124;-84
2021/08/01 19:27:25;;;;;;;228.95;200.00;;;;;;;;;;4143394;34;20057;-84
2021/08/01 19:29:58;;;;;;;236.07;200.32;;;;;;;;;;4138572;34;20110;-84
2021/08/01 19:32:32;;;;;;;222.37;198.15;;;;;;;;;;4140483;34;20127;-84
2021/08/01 19:35:02;;;;;;;306.30;163.75;;;;;;;;;;4133833;34;20084;-85
2021/08/01 19:37:31;;;;;;;302.23;160.65;;;;;;;;;;4141292;34;20076;-84
2021/08/01 19:39:59;;;;;;;307.35;207.07;;;;;;;;;;4136790;34;20045;-84
2021/08/01 19:42:33;;;;;;;313.50;179.10;;;;;;;;;;4141903;34;20053;-85
2021/08/01 19:45:01;;;;;;;319.52;199.00;;;;;;;;;;4148200;34;20472;-83
2021/08/01 19:47:32;;;;;;;326.33;187.10;;;;;;;;;;4147190;34;20075;-84
2021/08/01 19:50:02;;;;;;;378.17;227.70;;;;;;;;;;4148452;34;20586;-83
2021/08/01 19:52:31;;;;;;;336.45;204.20;;;;;;;;;;4138707;34;20369;-84
2021/08/01 19:55:00;;;;;;;349.27;207.62;;;;;;;;;;4150546;34;20436;-83
2021/08/01 19:57:28;;;;;;;351.60;208.80;;;;;;;;;;4143592;34;20754;-83
2021/08/01 19:59:57;;;;;;;270.12;191.02;;;;;;;;;;4150990;34;20080;-83
2021/08/01 20:02:27;;;;;;;290.50;205.70;;;;;;;;;;4148144;34;20076;-85
2021/08/01 20:04:56;;;;;;;297.15;218.57;;;;;;;;;;4150480;34;20052;-84
2021/08/01 20:07:27;;;;;;;297.12;215.95;;;;;;;;;;4152157;34;20047;-85
2021/08/01 20:09:55;;;;;;;264.12;205.73;;;;;;;;;;4150172;34;20091;-83
2021/08/01 20:12:24;;;;;;;384.30;229.50;;;;;;;;;;4146116;34;20096;-84
2021/08/01 20:14:52;;;;;;;377.05;234.48;;;;;;;;;;4148071;34;20091;-83
2021/08/01 20:17:21;;;;;;;349.17;210.95;;;;;;;;;;4145840;34;20548;-83
2021/08/01 20:19:50;;;;;;;364.20;223.68;;;;;;;;;;4154558;34;20044;-85
2021/08/01 20:22:18;;;;;;;356.25;222.57;;;;;;;;;;4150390;34;20114;-84